sensor_id;sensor_type;location;lat;lon;timestamp;pressure;altitude;pressure_sealevel;temperature;humidity
4012;BME280;2020;48.682;9.024;2023-08-08T00:02:18;96610.97;;;11.11;85.53
4012;BME280;2020;48.682;9.024;2023-08-08T00:04:44;96618.94;;;11.10;86.18
4012;BME280;2020;48.682;9.024;2023-08-08T00:07:09;96617.16;;;11.10;85.93
4012;BME280;2020;48.682;9.024;2023-08-08T00:09:35;96621.69;;;11.08;86.62
4012;BME280;2020;48.682;9.024;2023-08-08T00:12:00;96613.75;;;11.10;85.93
4012;BME280;2020;48.682;9.024;2023-08-08T00:14:26;96625.94;;;11.09;86.89
4012;BME280;2020;48.682;9.024;2023-08-08T00:16:51;96618.44;;;11.06;85.79
4012;BME280;2020;48.682;9.024;2023-08-08T00:19:16;96620.06;;;11.07;85.85
4012;BME280;2020;48.682;9.024;2023-08-08T00:21:41;96620.75;;;11.18;86.56
4012;BME280;2020;48.682;9.024;2023-08-08T00:24:07;96617.81;;;11.12;86.48
4012;BME280;2020;48.682;9.024;2023-08-08T00:26:32;96622.06;;;11.14;86.34
4012;BME280;2020;48.682;9.024;2023-08-08T00:28:57;96615.06;;;11.14;86.98
4012;BME280;2020;48.682;9.024;2023-08-08T00:31:22;96617.34;;;11.17;85.87
4012;BME280;2020;48.682;9.024;2023-08-08T00:33:48;96632.19;;;11.25;86.73
4012;BME280;2020;48.682;9.024;2023-08-08T00:36:13;96620.16;;;11.24;86.40
4012;BME280;2020;48.682;9.024;2023-08-08T00:38:38;96623.41;;;11.26;86.46
4012;BME280;2020;48.682;9.024;2023-08-08T00:41:03;96626.00;;;11.26;87.54
4012;BME280;2020;48.682;9.024;2023-08-08T00:43:29;96629.66;;;11.33;85.31
4012;BME280;2020;48.682;9.024;2023-08-08T00:45:55;96621.78;;;11.25;86.13
4012;BME280;2020;48.682;9.024;2023-08-08T00:48:20;96621.50;;;11.28;87.28
4012;BME280;2020;48.682;9.024;2023-08-08T00:50:45;96623.13;;;11.29;86.69
4012;BME280;2020;48.682;9.024;2023-08-08T00:53:13;96617.59;;;11.32;85.58
4012;BME280;2020;48.682;9.024;2023-08-08T00:55:39;96618.41;;;11.33;86.63
4012;BME280;2020;48.682;9.024;2023-08-08T00:58:05;96617.91;;;11.29;87.20
4012;BME280;2020;48.682;9.024;2023-08-08T01:00:31;96609.44;;;11.27;87.76
4012;BME280;2020;48.682;9.024;2023-08-08T01:02:57;96611.34;;;11.25;87.05
4012;BME280;2020;48.682;9.024;2023-08-08T01:05:22;96609.59;;;11.25;86.96
4012;BME280;2020;48.682;9.024;2023-08-08T01:08:01;96610.75;;;11.31;86.48
4012;BME280;2020;48.682;9.024;2023-08-08T01:10:35;96604.91;;;11.37;85.80
4012;BME280;2020;48.682;9.024;2023-08-08T01:13:07;96600.41;;;11.48;85.20
4012;BME280;2020;48.682;9.024;2023-08-08T01:15:34;96599.56;;;11.47;85.02
4012;BME280;2020;48.682;9.024;2023-08-08T01:18:03;96602.50;;;11.52;85.96
4012;BME280;2020;48.682;9.024;2023-08-08T01:20:29;96606.09;;;11.51;86.38
4012;BME280;2020;48.682;9.024;2023-08-08T01:23:02;96607.25;;;11.49;85.19
4012;BME280;2020;48.682;9.024;2023-08-08T01:25:30;96603.66;;;11.50;85.91
4012;BME280;2020;48.682;9.024;2023-08-08T01:27:56;96600.09;;;11.51;85.96
4012;BME280;2020;48.682;9.024;2023-08-08T01:30:21;96597.13;;;11.46;86.09
4012;BME280;2020;48.682;9.024;2023-08-08T01:32:46;96593.56;;;11.47;86.22
4012;BME280;2020;48.682;9.024;2023-08-08T01:35:12;96588.03;;;11.50;86.83
4012;BME280;2020;48.682;9.024;2023-08-08T01:38:42;96591.91;;;11.46;86.38
4012;BME280;2020;48.682;9.024;2023-08-08T01:40:49;96590.28;;;11.45;86.57
4012;BME280;2020;48.682;9.024;2023-08-08T01:43:15;96588.66;;;11.44;86.53
4012;BME280;2020;48.682;9.024;2023-08-08T01:45:40;96582.75;;;11.33;86.75
4012;BME280;2020;48.682;9.024;2023-08-08T01:48:10;96582.44;;;11.36;87.23
4012;BME280;2020;48.682;9.024;2023-08-08T01:50:37;96586.03;;;11.35;88.36
4012;BME280;2020;48.682;9.024;2023-08-08T01:53:02;96590.22;;;11.28;88.32
4012;BME280;2020;48.682;9.024;2023-08-08T01:55:29;96584.69;;;11.31;88.02
4012;BME280;2020;48.682;9.024;2023-08-08T01:57:55;96586.03;;;11.35;87.40
4012;BME280;2020;48.682;9.024;2023-08-08T02:00:20;96584.38;;;11.34;87.45
4012;BME280;2020;48.682;9.024;2023-08-08T02:02:45;96586.34;;;11.32;88.03
4012;BME280;2020;48.682;9.024;2023-08-08T02:05:11;96591.22;;;11.35;87.33
4012;BME280;2020;48.682;9.024;2023-08-08T02:07:36;96588.28;;;11.30;87.45
4012;BME280;2020;48.682;9.024;2023-08-08T02:10:01;96585.03;;;11.28;87.47
4012;BME280;2020;48.682;9.024;2023-08-08T02:12:26;96584.19;;;11.27;87.38
4012;BME280;2020;48.682;9.024;2023-08-08T02:14:54;96580.59;;;11.29;87.98
4012;BME280;2020;48.682;9.024;2023-08-08T02:17:19;96578.19;;;11.27;87.88
4012;BME280;2020;48.682;9.024;2023-08-08T02:19:44;96578.19;;;11.27;88.43
4012;BME280;2020;48.682;9.024;2023-08-08T02:22:09;96576.06;;;11.31;88.27
4012;BME280;2020;48.682;9.024;2023-08-08T02:24:35;96567.75;;;11.27;88.80
4012;BME280;2020;48.682;9.024;2023-08-08T02:27:00;96566.41;;;11.23;88.68
4012;BME280;2020;48.682;9.024;2023-08-08T02:29:25;96575.81;;;11.16;89.48
4012;BME280;2020;48.682;9.024;2023-08-08T02:31:50;96576.16;;;11.21;88.81
4012;BME280;2020;48.682;9.024;2023-08-08T02:34:16;96580.41;;;11.22;89.76
4012;BME280;2020;48.682;9.024;2023-08-08T02:36:41;96575.19;;;11.22;88.67
4012;BME280;2020;48.682;9.024;2023-08-08T02:39:06;96573.25;;;11.24;88.66
4012;BME280;2020;48.682;9.024;2023-08-08T02:41:31;96564.78;;;11.22;88.63
4012;BME280;2020;48.682;9.024;2023-08-08T02:43:57;96561.34;;;11.13;89.09
4012;BME280;2020;48.682;9.024;2023-08-08T02:46:22;96574.19;;;11.15;89.21
4012;BME280;2020;48.682;9.024;2023-08-08T02:48:47;96571.94;;;11.20;89.51
4012;BME280;2020;48.682;9.024;2023-08-08T02:51:13;96570.75;;;11.06;90.00
4012;BME280;2020;48.682;9.024;2023-08-08T02:53:39;96565.00;;;11.02;90.11
4012;BME280;2020;48.682;9.024;2023-08-08T02:56:04;96561.75;;;11.00;90.44
4012;BME280;2020;48.682;9.024;2023-08-08T02:58:30;96560.44;;;10.96;90.27
4012;BME280;2020;48.682;9.024;2023-08-08T03:00:55;96565.63;;;10.96;90.49
4012;BME280;2020;48.682;9.024;2023-08-08T03:03:20;96568.09;;;10.97;89.87
4012;BME280;2020;48.682;9.024;2023-08-08T03:05:45;96563.69;;;10.98;90.04
4012;BME280;2020;48.682;9.024;2023-08-08T03:08:11;96560.41;;;10.88;90.66
4012;BME280;2020;48.682;9.024;2023-08-08T03:10:36;96565.16;;;10.92;90.54
4012;BME280;2020;48.682;9.024;2023-08-08T03:13:02;96566.25;;;10.90;90.21
4012;BME280;2020;48.682;9.024;2023-08-08T03:15:27;96558.09;;;10.85;91.15
4012;BME280;2020;48.682;9.024;2023-08-08T03:17:53;96562.28;;;10.77;91.86
4012;BME280;2020;48.682;9.024;2023-08-08T03:20:18;96555.44;;;10.76;92.28
4012;BME280;2020;48.682;9.024;2023-08-08T03:22:43;96557.59;;;10.81;91.84
4012;BME280;2020;48.682;9.024;2023-08-08T03:25:08;96550.06;;;10.70;91.88
4012;BME280;2020;48.682;9.024;2023-08-08T03:27:35;96554.78;;;10.74;91.86
4012;BME280;2020;48.682;9.024;2023-08-08T03:30:00;96554.13;;;10.72;91.58
4012;BME280;2020;48.682;9.024;2023-08-08T03:32:25;96557.09;;;10.77;91.49
4012;BME280;2020;48.682;9.024;2023-08-08T03:34:51;96560.66;;;10.76;91.97
4012;BME280;2020;48.682;9.024;2023-08-08T03:37:16;96558.41;;;10.81;92.41
4012;BME280;2020;48.682;9.024;2023-08-08T03:39:41;96562.50;;;10.84;91.84
4012;BME280;2020;48.682;9.024;2023-08-08T03:42:06;96556.47;;;10.83;92.16
4012;BME280;2020;48.682;9.024;2023-08-08T03:44:32;96560.03;;;10.82;91.81
4012;BME280;2020;48.682;9.024;2023-08-08T03:46:57;96555.72;;;10.91;92.09
4012;BME280;2020;48.682;9.024;2023-08-08T03:49:22;96557.81;;;10.96;91.17
4012;BME280;2020;48.682;9.024;2023-08-08T03:51:48;96561.63;;;11.02;91.38
4012;BME280;2020;48.682;9.024;2023-08-08T03:54:13;96566.03;;;11.09;91.11
4012;BME280;2020;48.682;9.024;2023-08-08T03:56:39;96560.81;;;11.09;90.28
4012;BME280;2020;48.682;9.024;2023-08-08T03:59:05;96566.84;;;11.10;89.88
4012;BME280;2020;48.682;9.024;2023-08-08T04:01:30;96570.78;;;11.14;90.51
4012;BME280;2020;48.682;9.024;2023-08-08T04:03:56;96568.97;;;11.15;91.16
4012;BME280;2020;48.682;9.024;2023-08-08T04:06:21;96573.88;;;11.18;90.42
4012;BME280;2020;48.682;9.024;2023-08-08T04:08:46;96568.22;;;11.22;90.18
4012;BME280;2020;48.682;9.024;2023-08-08T04:11:11;96573.88;;;11.18;90.77
4012;BME280;2020;48.682;9.024;2023-08-08T04:13:37;96573.56;;;11.21;90.14
4012;BME280;2020;48.682;9.024;2023-08-08T04:16:02;96573.06;;;11.17;90.05
4012;BME280;2020;48.682;9.024;2023-08-08T04:18:27;96569.63;;;11.17;88.85
4012;BME280;2020;48.682;9.024;2023-08-08T04:20:53;96577.31;;;11.18;89.39
4012;BME280;2020;48.682;9.024;2023-08-08T04:23:18;96575.81;;;11.16;89.26
4012;BME280;2020;48.682;9.024;2023-08-08T04:25:44;96573.88;;;11.18;89.72
4012;BME280;2020;48.682;9.024;2023-08-08T04:28:09;96569.59;;;11.08;89.94
4012;BME280;2020;48.682;9.024;2023-08-08T04:30:35;96575.16;;;11.14;88.83
4012;BME280;2020;48.682;9.024;2023-08-08T04:33:00;96567.66;;;11.10;89.37
4012;BME280;2020;48.682;9.024;2023-08-08T04:35:25;96566.03;;;11.09;89.41
4012;BME280;2020;48.682;9.024;2023-08-08T04:37:51;96566.97;;;11.00;89.75
4012;BME280;2020;48.682;9.024;2023-08-08T04:40:16;96573.66;;;11.03;90.05
4012;BME280;2020;48.682;9.024;2023-08-08T04:42:42;96577.38;;;11.00;90.21
4012;BME280;2020;48.682;9.024;2023-08-08T04:45:08;96576.28;;;11.03;88.51
4012;BME280;2020;48.682;9.024;2023-08-08T04:47:33;96577.25;;;11.02;90.24
4012;BME280;2020;48.682;9.024;2023-08-08T04:49:58;96573.66;;;11.03;90.30
4012;BME280;2020;48.682;9.024;2023-08-08T04:52:23;96573.81;;;11.01;89.92
4012;BME280;2020;48.682;9.024;2023-08-08T04:54:49;96576.31;;;11.11;90.15
4012;BME280;2020;48.682;9.024;2023-08-08T04:57:14;96580.72;;;11.19;88.61
4012;BME280;2020;48.682;9.024;2023-08-08T04:59:39;96582.34;;;11.20;89.01
4012;BME280;2020;48.682;9.024;2023-08-08T05:02:05;96580.72;;;11.19;88.73
4012;BME280;2020;48.682;9.024;2023-08-08T05:04:30;96580.09;;;11.25;88.30
4012;BME280;2020;48.682;9.024;2023-08-08T05:06:55;96578.34;;;11.34;88.07
4012;BME280;2020;48.682;9.024;2023-08-08T05:09:21;96583.88;;;11.31;88.02
4012;BME280;2020;48.682;9.024;2023-08-08T05:11:49;96593.19;;;11.33;87.79
4012;BME280;2020;48.682;9.024;2023-08-08T05:14:14;96583.88;;;11.31;87.95
4012;BME280;2020;48.682;9.024;2023-08-08T05:16:40;96580.78;;;11.27;88.57
4012;BME280;2020;48.682;9.024;2023-08-08T05:19:06;96576.22;;;11.29;88.59
4012;BME280;2020;48.682;9.024;2023-08-08T05:21:31;96566.59;;;11.30;88.43
4012;BME280;2020;48.682;9.024;2023-08-08T05:23:56;96569.56;;;11.35;87.94
4012;BME280;2020;48.682;9.024;2023-08-08T05:26:21;96567.78;;;11.35;88.12
4012;BME280;2020;48.682;9.024;2023-08-08T05:28:47;96563.91;;;11.48;87.89
4012;BME280;2020;48.682;9.024;2023-08-08T05:31:12;96564.22;;;11.45;88.19
4012;BME280;2020;48.682;9.024;2023-08-08T05:33:37;96564.59;;;11.58;88.31
4012;BME280;2020;48.682;9.024;2023-08-08T05:36:03;96564.25;;;11.61;86.29
4012;BME280;2020;48.682;9.024;2023-08-08T05:38:28;96557.91;;;11.64;86.91
4012;BME280;2020;48.682;9.024;2023-08-08T05:40:53;96562.81;;;11.67;87.35
4012;BME280;2020;48.682;9.024;2023-08-08T05:43:18;96559.41;;;11.75;86.31
4012;BME280;2020;48.682;9.024;2023-08-08T05:45:44;96564.78;;;11.81;86.27
4012;BME280;2020;48.682;9.024;2023-08-08T05:48:10;96564.97;;;11.88;85.91
4012;BME280;2020;48.682;9.024;2023-08-08T05:50:39;96562.03;;;11.99;85.13
4012;BME280;2020;48.682;9.024;2023-08-08T05:53:04;96569.25;;;12.14;84.52
4012;BME280;2020;48.682;9.024;2023-08-08T05:55:29;96559.47;;;12.24;82.62
4012;BME280;2020;48.682;9.024;2023-08-08T05:57:55;96563.53;;;12.43;82.56
4012;BME280;2020;48.682;9.024;2023-08-08T06:00:20;96562.22;;;12.56;83.26
4012;BME280;2020;48.682;9.024;2023-08-08T06:02:45;96575.09;;;12.57;82.88
4012;BME280;2020;48.682;9.024;2023-08-08T06:05:11;96569.88;;;12.74;81.90
4012;BME280;2020;48.682;9.024;2023-08-08T06:07:37;96581.75;;;12.85;80.46
4012;BME280;2020;48.682;9.024;2023-08-08T06:10:02;96567.88;;;12.93;81.10
4012;BME280;2020;48.682;9.024;2023-08-08T06:12:27;96574.66;;;13.10;81.19
4012;BME280;2020;48.682;9.024;2023-08-08T06:14:53;96564.84;;;13.21;79.79
4012;BME280;2020;48.682;9.024;2023-08-08T06:17:18;96565.09;;;13.34;80.29
4012;BME280;2020;48.682;9.024;2023-08-08T06:19:43;96569.25;;;13.60;83.30
4012;BME280;2020;48.682;9.024;2023-08-08T06:22:08;96560.38;;;13.69;78.79
4012;BME280;2020;48.682;9.024;2023-08-08T06:24:34;96561.31;;;13.77;78.04
4012;BME280;2020;48.682;9.024;2023-08-08T06:26:59;96557.50;;;13.87;79.14
4012;BME280;2020;48.682;9.024;2023-08-08T06:29:24;96557.66;;;14.09;78.94
4012;BME280;2020;48.682;9.024;2023-08-08T06:31:50;96554.53;;;14.14;76.13
4012;BME280;2020;48.682;9.024;2023-08-08T06:34:15;96556.66;;;14.33;77.13
4012;BME280;2020;48.682;9.024;2023-08-08T06:36:41;96550.63;;;14.48;77.91
4012;BME280;2020;48.682;9.024;2023-08-08T06:39:06;96555.31;;;14.53;76.44
4012;BME280;2020;48.682;9.024;2023-08-08T06:41:31;96556.72;;;14.63;76.42
4012;BME280;2020;48.682;9.024;2023-08-08T06:43:57;96555.88;;;14.48;73.34
4012;BME280;2020;48.682;9.024;2023-08-08T06:46:23;96560.56;;;14.38;75.59
4012;BME280;2020;48.682;9.024;2023-08-08T06:48:49;96559.56;;;14.39;76.24
4012;BME280;2020;48.682;9.024;2023-08-08T06:51:15;96558.97;;;14.67;78.04
4012;BME280;2020;48.682;9.024;2023-08-08T06:53:41;96555.22;;;14.84;73.36
4012;BME280;2020;48.682;9.024;2023-08-08T06:56:06;96556.47;;;14.88;72.18
4012;BME280;2020;48.682;9.024;2023-08-08T06:58:31;96563.91;;;15.30;80.22
4012;BME280;2020;48.682;9.024;2023-08-08T07:00:56;96558.66;;;15.30;74.02
4012;BME280;2020;48.682;9.024;2023-08-08T07:03:22;96556.66;;;15.32;73.42
4012;BME280;2020;48.682;9.024;2023-08-08T07:05:47;96563.06;;;15.44;72.38
4012;BME280;2020;48.682;9.024;2023-08-08T07:08:16;96559.34;;;15.54;70.32
4012;BME280;2020;48.682;9.024;2023-08-08T07:10:42;96558.19;;;15.41;69.07
4012;BME280;2020;48.682;9.024;2023-08-08T07:13:07;96565.31;;;15.47;69.35
4012;BME280;2020;48.682;9.024;2023-08-08T07:15:33;96561.47;;;15.65;70.40
4012;BME280;2020;48.682;9.024;2023-08-08T07:17:59;96559.25;;;15.84;69.04
4012;BME280;2020;48.682;9.024;2023-08-08T07:20:25;96551.38;;;15.84;69.45
4012;BME280;2020;48.682;9.024;2023-08-08T07:22:50;96557.16;;;15.94;68.68
4012;BME280;2020;48.682;9.024;2023-08-08T07:25:15;96556.66;;;16.05;69.91
4012;BME280;2020;48.682;9.024;2023-08-08T07:27:41;96549.59;;;16.28;70.26
4012;BME280;2020;48.682;9.024;2023-08-08T07:30:06;96552.56;;;16.46;70.80
4012;BME280;2020;48.682;9.024;2023-08-08T07:32:32;96545.59;;;16.60;70.69
4012;BME280;2020;48.682;9.024;2023-08-08T07:34:58;96549.03;;;16.96;72.86
4012;BME280;2020;48.682;9.024;2023-08-08T07:37:23;96544.72;;;16.81;65.07
4012;BME280;2020;48.682;9.024;2023-08-08T07:39:50;96545.16;;;16.92;66.12
4012;BME280;2020;48.682;9.024;2023-08-08T07:42:16;96550.50;;;16.99;65.68
4012;BME280;2020;48.682;9.024;2023-08-08T07:44:41;96551.59;;;16.83;65.87
4012;BME280;2020;48.682;9.024;2023-08-08T07:47:07;96550.22;;;16.58;63.14
4012;BME280;2020;48.682;9.024;2023-08-08T07:49:32;96547.09;;;16.76;66.55
4012;BME280;2020;48.682;9.024;2023-08-08T07:51:57;96544.13;;;16.86;64.72
4012;BME280;2020;48.682;9.024;2023-08-08T07:54:22;96544.84;;;17.02;65.32
4012;BME280;2020;48.682;9.024;2023-08-08T07:56:48;96542.47;;;17.07;63.92
4012;BME280;2020;48.682;9.024;2023-08-08T07:59:13;96546.09;;;17.06;64.77
4012;BME280;2020;48.682;9.024;2023-08-08T08:01:38;96543.66;;;17.04;66.43
4012;BME280;2020;48.682;9.024;2023-08-08T08:04:04;96545.31;;;16.84;62.53
4012;BME280;2020;48.682;9.024;2023-08-08T08:06:31;96541.44;;;16.73;63.37
4012;BME280;2020;48.682;9.024;2023-08-08T08:08:56;96541.03;;;16.76;64.68
4012;BME280;2020;48.682;9.024;2023-08-08T08:11:21;96543.06;;;16.74;64.28
4012;BME280;2020;48.682;9.024;2023-08-08T08:13:46;96530.31;;;16.77;61.58
4012;BME280;2020;48.682;9.024;2023-08-08T08:16:12;96538.88;;;16.86;62.41
4012;BME280;2020;48.682;9.024;2023-08-08T08:18:37;96534.72;;;16.99;60.95
4012;BME280;2020;48.682;9.024;2023-08-08T08:21:03;96541.44;;;17.08;59.83
4012;BME280;2020;48.682;9.024;2023-08-08T08:23:28;96533.00;;;17.19;63.63
4012;BME280;2020;48.682;9.024;2023-08-08T08:25:53;96538.09;;;17.28;61.16
4012;BME280;2020;48.682;9.024;2023-08-08T08:28:19;96536.13;;;17.43;63.33
4012;BME280;2020;48.682;9.024;2023-08-08T08:30:44;96536.63;;;17.74;63.22
4012;BME280;2020;48.682;9.024;2023-08-08T08:33:09;96535.19;;;17.71;60.24
4012;BME280;2020;48.682;9.024;2023-08-08T08:35:35;96537.69;;;17.24;61.98
4012;BME280;2020;48.682;9.024;2023-08-08T08:38:01;96534.34;;;17.02;61.82
4012;BME280;2020;48.682;9.024;2023-08-08T08:40:27;96540.13;;;16.90;62.52
4012;BME280;2020;48.682;9.024;2023-08-08T08:42:53;96532.53;;;16.74;61.66
4012;BME280;2020;48.682;9.024;2023-08-08T08:45:20;96532.94;;;16.77;62.09
4012;BME280;2020;48.682;9.024;2023-08-08T08:47:47;96535.56;;;17.06;64.55
4012;BME280;2020;48.682;9.024;2023-08-08T08:50:15;96529.25;;;17.42;62.30
4012;BME280;2020;48.682;9.024;2023-08-08T08:52:42;96527.25;;;17.58;60.49
4012;BME280;2020;48.682;9.024;2023-08-08T08:55:08;96528.09;;;17.65;60.83
4012;BME280;2020;48.682;9.024;2023-08-08T08:57:34;96524.06;;;17.62;58.67
4012;BME280;2020;48.682;9.024;2023-08-08T08:59:59;96523.63;;;17.59;60.84
4012;BME280;2020;48.682;9.024;2023-08-08T09:02:24;96519.56;;;17.49;61.42
4012;BME280;2020;48.682;9.024;2023-08-08T09:04:50;96522.78;;;17.51;61.27
4012;BME280;2020;48.682;9.024;2023-08-08T09:07:19;96523.50;;;17.18;58.66
4012;BME280;2020;48.682;9.024;2023-08-08T09:09:45;96513.31;;;17.57;62.46
4012;BME280;2020;48.682;9.024;2023-08-08T09:12:10;96526.06;;;17.67;61.09
4012;BME280;2020;48.682;9.024;2023-08-08T09:14:40;96524.88;;;17.76;59.40
4012;BME280;2020;48.682;9.024;2023-08-08T09:17:12;96522.91;;;17.92;59.25
4012;BME280;2020;48.682;9.024;2023-08-08T09:19:44;96515.75;;;17.72;58.82
4012;BME280;2020;48.682;9.024;2023-08-08T09:22:12;96511.50;;;17.71;56.64
4012;BME280;2020;48.682;9.024;2023-08-08T09:24:39;96518.19;;;17.67;57.40
4012;BME280;2020;48.682;9.024;2023-08-08T09:27:06;96517.00;;;17.83;59.84
4012;BME280;2020;48.682;9.024;2023-08-08T09:29:32;96520.88;;;17.94;59.04
4012;BME280;2020;48.682;9.024;2023-08-08T09:31:58;96510.75;;;17.97;56.09
4012;BME280;2020;48.682;9.024;2023-08-08T09:34:26;96512.81;;;18.02;57.01
4012;BME280;2020;48.682;9.024;2023-08-08T09:36:52;96501.47;;;18.22;56.85
4012;BME280;2020;48.682;9.024;2023-08-08T09:39:17;96507.97;;;18.26;56.77
4012;BME280;2020;48.682;9.024;2023-08-08T09:41:45;96504.50;;;18.32;57.50
4012;BME280;2020;48.682;9.024;2023-08-08T09:44:11;96507.13;;;18.25;54.55
4012;BME280;2020;48.682;9.024;2023-08-08T09:46:37;96501.69;;;18.14;54.74
4012;BME280;2020;48.682;9.024;2023-08-08T09:49:04;96505.50;;;18.45;55.10
4012;BME280;2020;48.682;9.024;2023-08-08T09:51:30;96500.22;;;18.65;54.66
4012;BME280;2020;48.682;9.024;2023-08-08T09:53:55;96497.00;;;18.42;54.20
4012;BME280;2020;48.682;9.024;2023-08-08T09:56:23;96493.75;;;18.61;52.94
4012;BME280;2020;48.682;9.024;2023-08-08T09:58:48;96492.66;;;18.82;52.73
4012;BME280;2020;48.682;9.024;2023-08-08T10:01:14;96493.03;;;18.92;51.59
4012;BME280;2020;48.682;9.024;2023-08-08T10:03:41;96493.66;;;19.01;51.01
4012;BME280;2020;48.682;9.024;2023-08-08T10:06:08;96497.22;;;19.20;51.73
4012;BME280;2020;48.682;9.024;2023-08-08T10:08:34;96487.56;;;18.94;51.03
4012;BME280;2020;48.682;9.024;2023-08-08T10:11:01;96496.09;;;18.89;50.21
4012;BME280;2020;48.682;9.024;2023-08-08T10:13:27;96486.75;;;18.93;50.12
4012;BME280;2020;48.682;9.024;2023-08-08T10:15:53;96482.38;;;19.33;52.45
4012;BME280;2020;48.682;9.024;2023-08-08T10:18:23;96489.38;;;19.52;52.62
4012;BME280;2020;48.682;9.024;2023-08-08T10:20:49;96488.88;;;19.69;48.58
4012;BME280;2020;48.682;9.024;2023-08-08T10:23:16;96488.81;;;19.76;49.49
4012;BME280;2020;48.682;9.024;2023-08-08T10:25:48;96490.06;;;19.73;48.87
4012;BME280;2020;48.682;9.024;2023-08-08T10:28:19;96482.81;;;19.62;49.20
4012;BME280;2020;48.682;9.024;2023-08-08T10:30:59;96491.59;;;19.49;48.50
4012;BME280;2020;48.682;9.024;2023-08-08T10:33:47;96486.47;;;19.61;50.43
4012;BME280;2020;48.682;9.024;2023-08-08T10:36:12;96482.38;;;19.33;48.18
4012;BME280;2020;48.682;9.024;2023-08-08T10:38:47;96486.94;;;19.51;49.31
4012;BME280;2020;48.682;9.024;2023-08-08T10:41:16;96478.91;;;19.71;49.43
4012;BME280;2020;48.682;9.024;2023-08-08T10:43:50;96493.88;;;19.45;46.71
4012;BME280;2020;48.682;9.024;2023-08-08T10:46:29;96488.84;;;19.37;48.00
4012;BME280;2020;48.682;9.024;2023-08-08T10:49:00;96485.81;;;19.33;49.00
4012;BME280;2020;48.682;9.024;2023-08-08T10:51:53;96485.63;;;19.67;48.72
4012;BME280;2020;48.682;9.024;2023-08-08T10:54:21;96477.38;;;19.82;44.95
4012;BME280;2020;48.682;9.024;2023-08-08T10:56:50;96480.59;;;19.97;44.96
4012;BME280;2020;48.682;9.024;2023-08-08T10:59:23;96483.09;;;20.36;45.27
4012;BME280;2020;48.682;9.024;2023-08-08T11:01:50;96477.59;;;20.12;44.11
4012;BME280;2020;48.682;9.024;2023-08-08T11:04:18;96468.41;;;20.40;45.08
4012;BME280;2020;48.682;9.024;2023-08-08T11:06:44;96474.63;;;20.71;44.72
4012;BME280;2020;48.682;9.024;2023-08-08T11:09:10;96463.63;;;20.74;45.71
4012;BME280;2020;48.682;9.024;2023-08-08T11:11:39;96472.38;;;20.50;45.89
4012;BME280;2020;48.682;9.024;2023-08-08T11:14:23;96459.53;;;20.79;45.33
4012;BME280;2020;48.682;9.024;2023-08-08T11:16:50;96461.72;;;21.00;42.62
4012;BME280;2020;48.682;9.024;2023-08-08T11:19:16;96458.47;;;20.61;42.95
4012;BME280;2020;48.682;9.024;2023-08-08T11:21:45;96475.97;;;20.99;43.39
4012;BME280;2020;48.682;9.024;2023-08-08T11:24:11;96467.47;;;20.97;42.79
4012;BME280;2020;48.682;9.024;2023-08-08T11:26:38;96459.09;;;20.82;41.80
4012;BME280;2020;48.682;9.024;2023-08-08T11:29:05;96464.63;;;21.29;42.04
4012;BME280;2020;48.682;9.024;2023-08-08T11:31:31;96461.44;;;21.70;41.59
4012;BME280;2020;48.682;9.024;2023-08-08T11:33:59;96454.56;;;21.50;39.41
4012;BME280;2020;48.682;9.024;2023-08-08T11:36:34;96468.75;;;21.25;40.58
4012;BME280;2020;48.682;9.024;2023-08-08T11:39:01;96469.38;;;21.39;42.36
4012;BME280;2020;48.682;9.024;2023-08-08T11:41:33;96464.06;;;21.09;42.70
4012;BME280;2020;48.682;9.024;2023-08-08T11:43:59;96463.78;;;20.98;42.90
4012;BME280;2020;48.682;9.024;2023-08-08T11:46:25;96460.25;;;20.86;43.01
4012;BME280;2020;48.682;9.024;2023-08-08T11:48:50;96459.66;;;20.65;41.58
4012;BME280;2020;48.682;9.024;2023-08-08T11:51:16;96460.78;;;20.51;43.50
4012;BME280;2020;48.682;9.024;2023-08-08T11:53:52;96460.25;;;21.04;41.73
4012;BME280;2020;48.682;9.024;2023-08-08T11:56:21;96453.19;;;21.59;41.61
4012;BME280;2020;48.682;9.024;2023-08-08T11:58:50;96446.88;;;21.60;39.96
4012;BME280;2020;48.682;9.024;2023-08-08T12:01:26;96448.34;;;20.95;40.52
4012;BME280;2020;48.682;9.024;2023-08-08T12:03:52;96454.38;;;21.02;41.85
4012;BME280;2020;48.682;9.024;2023-08-08T12:06:19;96455.00;;;21.47;41.74
4012;BME280;2020;48.682;9.024;2023-08-08T12:08:45;96451.06;;;21.38;40.97
4012;BME280;2020;48.682;9.024;2023-08-08T12:11:12;96446.38;;;21.82;41.43
4012;BME280;2020;48.682;9.024;2023-08-08T12:13:39;96452.75;;;21.62;39.75
4012;BME280;2020;48.682;9.024;2023-08-08T12:16:09;96444.16;;;21.37;39.98
4012;BME280;2020;48.682;9.024;2023-08-08T12:18:35;96446.22;;;21.35;42.15
4012;BME280;2020;48.682;9.024;2023-08-08T12:21:02;96438.88;;;21.37;42.43
4012;BME280;2020;48.682;9.024;2023-08-08T12:23:28;96437.97;;;21.43;41.88
4012;BME280;2020;48.682;9.024;2023-08-08T12:25:53;96437.25;;;21.36;41.35
4012;BME280;2020;48.682;9.024;2023-08-08T12:28:18;96431.31;;;21.52;39.91
4012;BME280;2020;48.682;9.024;2023-08-08T12:30:44;96431.31;;;21.95;41.63
4012;BME280;2020;48.682;9.024;2023-08-08T12:33:09;96431.44;;;22.00;39.78
4012;BME280;2020;48.682;9.024;2023-08-08T12:35:34;96427.13;;;21.75;41.11
4012;BME280;2020;48.682;9.024;2023-08-08T12:38:00;96431.31;;;21.83;41.85
4012;BME280;2020;48.682;9.024;2023-08-08T12:40:25;96424.34;;;21.70;41.03
4012;BME280;2020;48.682;9.024;2023-08-08T12:42:50;96424.16;;;21.71;41.00
4012;BME280;2020;48.682;9.024;2023-08-08T12:45:16;96435.59;;;21.96;40.70
4012;BME280;2020;48.682;9.024;2023-08-08T12:47:43;96429.13;;;21.91;40.78
4012;BME280;2020;48.682;9.024;2023-08-08T12:50:09;96427.38;;;21.73;40.01
4012;BME280;2020;48.682;9.024;2023-08-08T12:52:34;96418.13;;;21.33;40.12
4012;BME280;2020;48.682;9.024;2023-08-08T12:55:00;96423.44;;;21.33;41.90
4012;BME280;2020;48.682;9.024;2023-08-08T12:57:26;96421.63;;;21.15;42.54
4012;BME280;2020;48.682;9.024;2023-08-08T12:59:51;96426.59;;;20.93;42.88
4012;BME280;2020;48.682;9.024;2023-08-08T13:02:16;96430.84;;;20.57;42.63
4012;BME280;2020;48.682;9.024;2023-08-08T13:04:41;96424.81;;;20.50;43.41
4012;BME280;2020;48.682;9.024;2023-08-08T13:07:07;96427.44;;;20.31;43.04
4012;BME280;2020;48.682;9.024;2023-08-08T13:09:32;96421.13;;;20.32;43.67
4012;BME280;2020;48.682;9.024;2023-08-08T13:11:58;96433.16;;;20.28;44.31
4012;BME280;2020;48.682;9.024;2023-08-08T13:14:23;96426.13;;;20.40;44.37
4012;BME280;2020;48.682;9.024;2023-08-08T13:16:48;96426.97;;;21.27;43.31
4012;BME280;2020;48.682;9.024;2023-08-08T13:19:14;96415.50;;;21.76;41.86